Time;durP1;ratioP1;P1;durP2;ratioP2;P2;SDS_P1;SDS_P2;PMS_P1;PMS_P2;Temp;Humidity;BMP_temperature;BMP_pressure;BME280_temperature;BME280_humidity;BME280_pressure;Samples;Min_cycle;Max_cycle;Signal;HPM_P1;HPM_P2
2022/08/20 00:01:00;;;;;;;2.00;1.23;;;18.00;99.90;;;;;;4967843;28;20331;-83
2022/08/20 00:03:30;;;;;;;7.97;1.40;;;17.90;99.90;;;;;;4949266;28;20334;-83
2022/08/20 00:06:17;;;;;;;3.87;1.73;;;17.90;99.90;;;;;;4996517;28;20267;-84
2022/08/20 00:08:44;;;;;;;4.20;1.97;;;17.90;99.90;;;;;;4997110;28;20586;-83
2022/08/20 00:11:13;;;;;;;3.87;1.80;;;17.80;99.90;;;;;;5012932;28;20574;-83
2022/08/20 00:13:45;;;;;;;2.97;1.60;;;17.80;99.90;;;;;;5006220;28;20616;-83
2022/08/20 00:16:14;;;;;;;5.33;2.50;;;17.80;99.90;;;;;;4996533;28;20750;-84
2022/08/20 00:18:40;;;;;;;2.20;1.23;;;17.80;99.90;;;;;;4996644;28;20753;-83
2022/08/20 00:21:08;;;;;;;2.70;1.73;;;17.90;99.90;;;;;;4996553;28;20671;-83
2022/08/20 00:23:43;;;;;;;1.73;1.30;;;17.80;99.90;;;;;;4977579;28;20715;-83
2022/08/20 00:26:10;;;;;;;6.50;1.73;;;17.80;99.90;;;;;;4976754;28;20692;-84
2022/08/20 00:28:36;;;;;;;3.53;1.40;;;17.80;99.90;;;;;;4962323;28;20718;-84
2022/08/20 00:31:06;;;;;;;5.37;1.97;;;17.70;99.90;;;;;;4980196;28;20215;-83
2022/08/20 00:33:32;;;;;;;2.07;1.47;;;17.70;99.90;;;;;;4996008;28;20586;-84
2022/08/20 00:36:05;;;;;;;4.40;1.73;;;17.80;99.90;;;;;;4979912;28;20179;-84
2022/08/20 00:38:32;;;;;;;4.13;1.30;;;17.80;99.90;;;;;;4997663;28;20267;-83
2022/08/20 00:40:58;;;;;;;4.20;1.20;;;17.80;99.90;;;;;;4991634;28;20224;-84
2022/08/20 00:43:46;;;;;;;5.23;1.40;;;17.70;99.90;;;;;;4961232;28;20207;-83
2022/08/20 00:46:16;;;;;;;1.90;1.20;;;17.60;99.90;;;;;;4992566;28;20254;-84
2022/08/20 00:48:46;;;;;;;4.50;1.50;;;17.60;99.90;;;;;;4992561;28;20230;-83
2022/08/20 00:51:32;;;;;;;5.70;1.00;;;17.50;99.90;;;;;;4960461;28;20291;-84
2022/08/20 00:54:10;;;;;;;2.40;1.07;;;17.50;99.90;;;;;;4982350;28;20199;-83
2022/08/20 00:56:36;;;;;;;4.83;1.80;;;17.40;99.90;;;;;;4992805;28;20183;-83
2022/08/20 00:59:04;;;;;;;1.60;1.43;;;17.40;99.90;;;;;;4989655;28;20215;-83
2022/08/20 01:01:33;;;;;;;5.13;1.20;;;17.40;99.90;;;;;;4993767;28;20223;-83
2022/08/20 01:03:59;;;;;;;4.53;1.43;;;17.30;99.90;;;;;;4976781;28;20239;-83
2022/08/20 01:06:27;;;;;;;4.00;1.40;;;17.20;99.90;;;;;;4975729;28;20206;-84
2022/08/20 01:08:53;;;;;;;5.27;1.50;;;17.10;99.90;;;;;;4957389;28;20207;-86
2022/08/20 01:11:29;;;;;;;4.53;1.57;;;17.00;99.90;;;;;;4996116;28;20172;-84
2022/08/20 01:13:56;;;;;;;1.80;0.80;;;17.00;99.90;;;;;;4966013;28;20302;-84
2022/08/20 01:16:26;;;;;;;1.03;0.90;;;17.00;99.90;;;;;;4943231;28;20215;-84
2022/08/20 01:18:52;;;;;;;6.27;1.20;;;16.90;99.90;;;;;;4990960;28;20223;-84
2022/08/20 01:21:22;;;;;;;6.70;1.20;;;16.80;99.90;;;;;;4979206;28;20294;-83
2022/08/20 01:24:01;;;;;;;1.97;1.13;;;16.80;99.90;;;;;;4996193;28;20180;-85
2022/08/20 01:26:35;;;;;;;5.53;1.77;;;16.80;99.90;;;;;;4989203;28;20214;-83
2022/08/20 01:29:07;;;;;;;0.70;0.70;;;16.70;99.90;;;;;;4994802;28;20223;-83
2022/08/20 01:31:36;;;;;;;1.13;1.00;;;16.60;99.90;;;;;;4984773;28;20668;-84
2022/08/20 01:34:05;;;;;;;2.13;0.80;;;16.60;99.90;;;;;;4992032;28;20716;-84
2022/08/20 01:36:34;;;;;;;3.63;1.20;;;16.50;99.90;;;;;;4995199;28;20687;-85
2022/08/20 01:39:00;;;;;;;1.17;1.07;;;16.40;99.90;;;;;;4995304;28;20772;-83
2022/08/20 01:41:54;;;;;;;5.63;1.63;;;16.40;99.90;;;;;;4979650;28;20674;-84
2022/08/20 01:44:20;;;;;;;2.80;1.30;;;16.50;99.90;;;;;;4997069;28;21233;-84
2022/08/20 01:46:49;;;;;;;2.43;1.00;;;16.70;99.90;;;;;;4992747;28;20230;-84
2022/08/20 01:49:31;;;;;;;2.37;0.93;;;16.80;99.90;;;;;;5005638;28;20223;-83
2022/08/20 01:52:00;;;;;;;2.73;1.33;;;17.00;99.90;;;;;;4995097;28;20261;-84
2022/08/20 01:54:27;;;;;;;2.13;1.03;;;17.20;99.90;;;;;;4995206;28;20207;-84
2022/08/20 01:56:55;;;;;;;4.73;1.10;;;17.20;99.90;;;;;;5006978;28;20192;-84
2022/08/20 01:59:21;;;;;;;1.43;1.03;;;17.30;99.90;;;;;;5005101;28;20728;-84
2022/08/20 02:01:47;;;;;;;1.13;0.50;;;17.30;99.90;;;;;;4979051;28;20563;-84
2022/08/20 02:04:15;;;;;;;1.07;0.83;;;17.40;99.90;;;;;;4975796;28;20219;-84
2022/08/20 02:06:53;;;;;;;8.27;1.10;;;17.40;99.90;;;;;;4991870;28;20294;-84
2022/08/20 02:09:19;;;;;;;4.23;1.10;;;17.40;99.90;;;;;;4991470;28;20587;-84
2022/08/20 02:11:46;;;;;;;1.50;0.70;;;17.30;99.90;;;;;;5003431;28;20191;-83
2022/08/20 02:14:13;;;;;;;5.57;0.77;;;17.20;99.90;;;;;;5011229;28;20219;-83
2022/08/20 02:16:42;;;;;;;3.60;0.90;;;17.10;99.90;;;;;;5011185;28;20253;-83
2022/08/20 02:19:22;;;;;;;0.90;0.80;;;17.00;99.90;;;;;;5010874;28;20223;-83
2022/08/20 02:21:54;;;;;;;1.23;0.87;;;16.90;99.90;;;;;;5007137;28;20218;-83
2022/08/20 02:24:20;;;;;;;0.80;0.70;;;16.90;99.90;;;;;;4995448;28;20212;-83
2022/08/20 02:26:46;;;;;;;3.10;0.80;;;16.90;99.90;;;;;;4980053;28;20207;-83
2022/08/20 02:29:13;;;;;;;3.27;1.20;;;16.90;99.90;;;;;;5006327;28;20623;-84
2022/08/20 02:31:44;;;;;;;2.60;0.80;;;16.90;99.90;;;;;;4962681;28;20219;-83
2022/08/20 02:34:12;;;;;;;2.27;0.90;;;17.00;99.90;;;;;;4995199;28;20310;-84
2022/08/20 02:36:38;;;;;;;2.60;0.77;;;16.90;99.90;;;;;;4978994;28;20207;-83
2022/08/20 02:39:07;;;;;;;3.13;0.93;;;16.90;99.90;;;;;;4979264;28;20663;-84
2022/08/20 02:41:34;;;;;;;1.83;0.70;;;16.70;99.90;;;;;;4996507;28;20253;-84
2022/08/20 02:44:00;;;;;;;3.90;1.07;;;16.70;99.90;;;;;;5014403;28;20231;-84
2022/08/20 02:46:27;;;;;;;3.40;1.10;;;16.60;99.90;;;;;;4978528;28;20220;-84
2022/08/20 02:48:54;;;;;;;3.20;1.33;;;16.60;99.90;;;;;;4946785;28;20734;-84
2022/08/20 02:51:20;;;;;;;1.00;0.73;;;16.60;99.90;;;;;;4946781;28;20207;-83
2022/08/20 02:53:46;;;;;;;1.80;0.93;;;16.50;99.90;;;;;;4962931;28;20180;-83
2022/08/20 02:56:12;;;;;;;3.20;0.97;;;16.50;99.90;;;;;;4962445;28;20216;-83
2022/08/20 02:58:38;;;;;;;3.53;1.03;;;16.50;99.90;;;;;;4995744;28;20559;-83
2022/08/20 03:01:07;;;;;;;1.80;0.70;;;16.40;99.90;;;;;;4962206;28;20212;-83
2022/08/20 03:03:33;;;;;;;3.10;0.63;;;16.50;99.90;;;;;;4990317;28;20215;-83
2022/08/20 03:05:59;;;;;;;0.80;0.80;;;16.40;99.90;;;;;;4990005;28;20175;-84
2022/08/20 03:08:27;;;;;;;1.70;0.83;;;16.30;99.90;;;;;;4982147;28;20175;-83
2022/08/20 03:10:53;;;;;;;0.73;0.67;;;16.40;99.90;;;;;;4981677;28;20215;-83
2022/08/20 03:13:20;;;;;;;2.03;0.87;;;16.40;99.90;;;;;;4981204;28;20215;-83
2022/08/20 03:15:49;;;;;;;0.77;0.60;;;16.40;99.90;;;;;;4989958;28;20617;-82
2022/08/20 03:18:22;;;;;;;5.80;1.17;;;16.40;99.90;;;;;;4978380;28;20232;-83
2022/08/20 03:20:48;;;;;;;10.27;0.90;;;16.40;99.90;;;;;;4987207;28;20188;-83
2022/08/20 03:23:16;;;;;;;1.40;0.70;;;16.40;99.90;;;;;;4981094;28;20211;-83
2022/08/20 03:25:42;;;;;;;2.53;1.00;;;16.40;99.90;;;;;;4976898;28;20590;-83
2022/08/20 03:28:09;;;;;;;1.63;1.07;;;16.40;99.90;;;;;;4976900;28;20215;-83
2022/08/20 03:30:35;;;;;;;2.03;0.60;;;16.30;99.90;;;;;;4998560;28;20227;-83
2022/08/20 03:33:01;;;;;;;4.07;0.93;;;16.30;99.90;;;;;;4962058;28;20271;-83
2022/08/20 03:35:28;;;;;;;3.33;0.90;;;16.30;99.90;;;;;;4954228;28;20739;-84
2022/08/20 03:37:54;;;;;;;0.87;0.60;;;16.20;99.90;;;;;;4984907;28;20587;-82
2022/08/20 03:40:32;;;;;;;2.83;0.80;;;16.10;99.90;;;;;;4976954;28;20235;-83
2022/08/20 03:42:58;;;;;;;5.97;0.80;;;16.10;99.90;;;;;;4997259;28;20305;-83
2022/08/20 03:45:25;;;;;;;2.00;0.70;;;16.10;99.90;;;;;;4991651;28;20227;-83
2022/08/20 03:47:52;;;;;;;1.53;0.70;;;16.10;99.90;;;;;;4980530;28;20207;-83
2022/08/20 03:50:22;;;;;;;0.70;0.70;;;16.00;99.90;;;;;;4995134;28;20216;-83
2022/08/20 03:52:48;;;;;;;1.07;0.80;;;16.00;99.90;;;;;;4993637;28;20573;-83
2022/08/20 03:55:14;;;;;;;0.77;0.50;;;16.00;99.90;;;;;;4993612;28;20208;-83
2022/08/20 03:57:49;;;;;;;5.77;0.63;;;16.00;99.90;;;;;;4977523;28;20931;-83
2022/08/20 04:00:19;;;;;;;0.77;0.50;;;16.00;99.90;;;;;;5007928;28;20215;-83
2022/08/20 04:02:45;;;;;;;2.23;1.13;;;15.90;99.90;;;;;;5013753;28;20182;-84
2022/08/20 04:05:12;;;;;;;0.70;0.57;;;15.90;99.90;;;;;;4998781;28;20208;-84
2022/08/20 04:07:39;;;;;;;1.30;0.80;;;15.90;99.90;;;;;;4987201;28;20226;-84
2022/08/20 04:10:08;;;;;;;1.80;0.90;;;15.80;99.90;;;;;;4993160;28;20715;-84
2022/08/20 04:12:39;;;;;;;2.53;0.90;;;15.90;99.90;;;;;;4993475;28;20212;-84
2022/08/20 04:15:14;;;;;;;1.27;1.00;;;15.80;99.90;;;;;;4962398;28;20200;-83
2022/08/20 04:17:42;;;;;;;3.17;1.30;;;15.80;99.90;;;;;;5013616;28;20258;-84
2022/08/20 04:20:10;;;;;;;3.73;0.53;;;15.80;99.90;;;;;;5004538;28;20232;-83
2022/08/20 04:22:36;;;;;;;0.97;0.70;;;15.80;99.90;;;;;;5000813;28;20216;-83
2022/08/20 04:25:04;;;;;;;4.37;0.97;;;15.80;99.90;;;;;;4996565;28;20309;-83
2022/08/20 04:27:31;;;;;;;2.33;1.10;;;15.80;99.90;;;;;;4996336;28;20629;-83
2022/08/20 04:29:59;;;;;;;1.23;0.73;;;15.70;99.90;;;;;;4992703;28;20220;-84
2022/08/20 04:32:25;;;;;;;1.40;0.67;;;15.70;99.90;;;;;;4993592;28;20176;-83
2022/08/20 04:34:51;;;;;;;0.37;0.37;;;15.70;99.90;;;;;;4996490;28;20250;-83
2022/08/20 04:37:21;;;;;;;2.93;0.50;;;15.70;99.90;;;;;;5013699;28;20289;-83
2022/08/20 04:40:52;;;;;;;2.53;1.20;;;15.70;99.90;;;;;;4994114;28;20282;-83
2022/08/20 04:42:35;;;;;;;1.90;0.70;;;15.70;99.90;;;;;;4993924;28;20215;-83
2022/08/20 04:45:05;;;;;;;5.90;1.00;;;15.70;99.90;;;;;;4976482;28;20224;-83
2022/08/20 04:47:32;;;;;;;0.60;0.60;;;15.70;99.90;;;;;;4977609;28;20176;-83
2022/08/20 04:50:01;;;;;;;3.67;0.93;;;15.70;99.90;;;;;;4995628;28;20775;-83
2022/08/20 04:52:27;;;;;;;1.33;1.23;;;15.70;99.90;;;;;;4992546;28;20204;-83
2022/08/20 04:54:56;;;;;;;1.07;0.57;;;15.70;99.90;;;;;;4983466;28;20794;-83
2022/08/20 04:57:25;;;;;;;1.10;0.80;;;15.70;99.90;;;;;;5008706;28;20591;-83
2022/08/20 04:59:54;;;;;;;4.37;1.03;;;15.70;99.90;;;;;;4992832;28;20310;-82
2022/08/20 05:02:20;;;;;;;3.50;1.10;;;15.70;99.90;;;;;;4992877;28;20602;-83
2022/08/20 05:04:47;;;;;;;3.30;0.90;;;15.70;99.90;;;;;;4985956;28;20215;-83
2022/08/20 05:07:20;;;;;;;1.87;1.20;;;15.70;99.90;;;;;;5011820;28;20679;-83
2022/08/20 05:09:46;;;;;;;2.63;1.47;;;15.70;99.90;;;;;;5011905;28;20230;-83
2022/08/20 05:12:14;;;;;;;3.47;0.87;;;15.80;99.90;;;;;;4983460;28;20188;-83
2022/08/20 05:14:41;;;;;;;5.53;1.00;;;15.80;99.90;;;;;;4996264;28;20183;-83
2022/08/20 05:17:07;;;;;;;3.23;1.30;;;15.80;99.90;;;;;;4992869;28;20295;-83
2022/08/20 05:19:36;;;;;;;1.83;0.80;;;15.80;99.90;;;;;;4991904;28;20208;-83
2022/08/20 05:22:03;;;;;;;1.17;0.70;;;15.90;99.90;;;;;;5005121;28;20691;-83
2022/08/20 05:24:29;;;;;;;2.67;0.90;;;16.00;99.90;;;;;;5003350;28;20219;-83
2022/08/20 05:26:55;;;;;;;3.13;1.03;;;16.10;99.90;;;;;;4976282;28;20188;-83
2022/08/20 05:29:22;;;;;;;5.13;1.43;;;16.20;99.90;;;;;;4976388;28;20231;-82
2022/08/20 05:31:48;;;;;;;1.73;0.60;;;16.30;99.90;;;;;;4959991;28;20692;-83
2022/08/20 05:34:14;;;;;;;0.83;0.70;;;16.40;99.90;;;;;;5001835;28;20216;-83
2022/08/20 05:36:48;;;;;;;2.07;0.80;;;16.60;99.90;;;;;;4993221;28;20215;-83
2022/08/20 05:39:15;;;;;;;1.57;0.90;;;17.00;99.90;;;;;;5011847;28;20299;-83
2022/08/20 05:41:41;;;;;;;3.90;1.17;;;17.30;99.90;;;;;;5012031;28;20183;-83
2022/08/20 05:44:09;;;;;;;1.53;0.87;;;17.70;99.90;;;;;;4979037;28;20242;-83
2022/08/20 05:46:39;;;;;;;2.87;0.60;;;18.40;99.90;;;;;;5011484;28;20744;-83
2022/08/20 05:49:10;;;;;;;6.87;0.97;;;19.70;99.90;;;;;;4992406;28;20290;-83
2022/08/20 05:51:36;;;;;;;3.47;1.00;;;22.30;99.90;;;;;;4996834;28;20208;-83
2022/08/20 05:54:03;;;;;;;1.40;0.90;;;24.90;99.90;;;;;;4975626;28;20207;-83
2022/08/20 05:56:30;;;;;;;2.33;0.97;;;27.30;99.90;;;;;;4993135;28;20179;-82
2022/08/20 05:58:59;;;;;;;0.97;0.97;;;28.70;99.90;;;;;;5011047;28;20219;-83
2022/08/20 06:01:25;;;;;;;2.10;0.77;;;28.60;99.90;;;;;;5011899;28;20211;-83
2022/08/20 06:06:35;;;;;;;1.27;0.97;;;28.30;99.90;;;;;;5016177;28;20218;-83
2022/08/20 06:09:01;;;;;;;8.83;1.13;;;28.50;99.90;;;;;;4999098;28;20207;-83
2022/08/20 06:11:27;;;;;;;2.50;1.13;;;28.70;99.90;;;;;;5017146;28;20678;-85
2022/08/20 06:13:53;;;;;;;2.67;0.93;;;29.70;99.90;;;;;;4984115;28;20216;-85
2022/08/20 06:16:19;;;;;;;1.42;1.10;;;29.80;99.90;;;;;;4989749;28;20218;-83
2022/08/20 06:18:44;;;;;;;5.38;1.02;;;30.60;99.90;;;;;;5008864;28;20298;-83
2022/08/20 06:21:10;;;;;;;6.80;1.30;;;31.00;99.90;;;;;;4982195;28;20249;-84
2022/08/20 06:23:36;;;;;;;4.60;0.80;;;31.30;99.90;;;;;;4989120;28;20176;-89
2022/08/20 06:26:02;;;;;;;1.83;1.08;;;32.00;99.90;;;;;;4990143;28;20219;-90
2022/08/20 06:28:27;;;;;;;1.20;0.88;;;32.20;99.90;;;;;;4977768;28;20319;-87
2022/08/20 06:30:53;;;;;;;2.90;1.13;;;31.40;99.90;;;;;;4996356;28;20235;-85
2022/08/20 06:33:19;;;;;;;2.83;0.80;;;30.50;99.90;;;;;;4982614;28;20663;-85
2022/08/20 06:35:45;;;;;;;3.08;1.27;;;28.90;99.90;;;;;;4982174;28;20233;-85
2022/08/20 06:38:11;;;;;;;4.00;0.80;;;28.30;99.90;;;;;;4995285;28;20616;-86
2022/08/20 06:40:38;;;;;;;2.30;0.88;;;29.80;99.90;;;;;;4979138;28;20212;-85
2022/08/20 06:43:05;;;;;;;2.53;1.10;;;31.30;99.90;;;;;;4998405;28;20592;-86
2022/08/20 06:45:31;;;;;;;2.03;0.93;;;32.10;99.90;;;;;;5009027;28;20262;-85
2022/08/20 06:48:00;;;;;;;5.55;1.27;;;33.00;96.80;;;;;;4979168;28;20612;-86
2022/08/20 06:50:30;;;;;;;3.70;0.80;;;33.30;96.40;;;;;;5012377;28;20257;-86
2022/08/20 06:52:57;;;;;;;5.63;1.45;;;33.20;96.20;;;;;;5015920;28;20211;-85
2022/08/20 06:55:23;;;;;;;2.97;1.00;;;32.70;95.60;;;;;;4998106;28;20204;-85
2022/08/20 06:58:00;;;;;;;0.90;0.90;;;33.50;94.70;;;;;;4982155;28;20257;-86
2022/08/20 07:00:28;;;;;;;3.75;0.75;;;34.90;94.80;;;;;;4986840;28;20238;-86
2022/08/20 07:02:54;;;;;;;2.30;1.25;;;35.60;93.20;;;;;;5014606;28;20278;-88
2022/08/20 07:05:20;;;;;;;3.28;1.20;;;36.20;92.30;;;;;;4999127;28;20254;-86
2022/08/20 07:07:49;;;;;;;1.55;0.88;;;35.60;92.70;;;;;;4998035;28;20207;-88
2022/08/20 07:10:17;;;;;;;2.17;1.05;;;35.60;90.50;;;;;;5004289;28;20588;-88
2022/08/20 07:12:45;;;;;;;4.40;1.02;;;35.40;91.30;;;;;;4993746;28;20220;-88
2022/08/20 07:15:12;;;;;;;3.90;0.93;;;34.80;89.10;;;;;;5006356;28;20719;-89
2022/08/20 07:17:39;;;;;;;4.65;1.35;;;35.20;90.90;;;;;;4979592;28;20180;-86
2022/08/20 07:20:12;;;;;;;1.35;0.82;;;34.50;91.90;;;;;;4962729;28;20314;-88
2022/08/20 07:22:38;;;;;;;3.70;1.17;;;35.60;91.70;;;;;;4994853;28;20208;-89
2022/08/20 07:25:06;;;;;;;2.63;0.85;;;35.90;90.50;;;;;;4997777;28;20277;-87
2022/08/20 07:27:33;;;;;;;3.25;1.08;;;35.60;89.20;;;;;;4998063;28;20761;-87
2022/08/20 07:32:45;;;;;;;1.52;1.17;;;36.10;90.20;;;;;;4971562;28;20267;-87
2022/08/20 07:35:13;;;;;;;3.47;0.88;;;36.40;86.20;;;;;;4997690;28;20208;-89
2022/08/20 07:37:45;;;;;;;5.85;1.35;;;35.60;85.20;;;;;;4998068;28;20222;-90
2022/08/20 07:40:23;;;;;;;4.22;1.17;;;33.60;89.80;;;;;;5014191;28;20215;-89
2022/08/20 07:42:49;;;;;;;1.92;0.95;;;33.10;92.20;;;;;;5011804;28;20222;-89
2022/08/20 07:45:17;;;;;;;8.70;1.35;;;34.80;90.70;;;;;;4978510;28;20223;-89
2022/08/20 07:47:44;;;;;;;4.25;1.10;;;34.70;90.30;;;;;;4978973;28;20284;-89
2022/08/20 07:50:13;;;;;;;3.50;1.08;;;34.10;91.10;;;;;;5007642;28;20223;-89
2022/08/20 07:52:39;;;;;;;7.05;1.10;;;32.30;92.90;;;;;;5014063;28;20218;-90
2022/08/20 07:55:09;;;;;;;5.50;1.35;;;32.70;94.00;;;;;;5013888;28;20204;-89
2022/08/20 07:57:36;;;;;;;5.78;1.25;;;31.90;92.40;;;;;;4998356;28;20219;-90
2022/08/20 08:00:04;;;;;;;3.67;1.55;;;32.90;91.90;;;;;;4994452;28;20667;-89
2022/08/20 08:02:30;;;;;;;3.22;1.00;;;32.60;93.20;;;;;;4978789;28;20223;-90
2022/08/20 08:04:55;;;;;;;3.80;1.25;;;33.10;92.90;;;;;;4989048;28;20203;-91
2022/08/20 08:07:24;;;;;;;2.63;0.98;;;31.70;92.70;;;;;;4982155;28;20219;-93
2022/08/20 08:09:49;;;;;;;3.25;0.80;;;32.10;93.50;;;;;;4998352;28;20226;-89
2022/08/20 08:12:16;;;;;;;3.33;1.00;;;32.10;93.50;;;;;;4966561;28;20219;-89
2022/08/20 08:14:44;;;;;;;2.70;1.60;;;31.60;93.90;;;;;;4994607;28;20581;-91
2022/08/20 08:17:11;;;;;;;5.38;1.40;;;30.90;94.40;;;;;;5002502;28;20288;-90
2022/08/20 08:19:42;;;;;;;3.42;1.13;;;32.30;94.10;;;;;;5009556;28;20784;-89
2022/08/20 08:22:11;;;;;;;1.80;0.88;;;32.70;91.10;;;;;;5009953;28;20259;-89
2022/08/20 08:24:39;;;;;;;4.03;1.20;;;32.20;92.00;;;;;;4993952;28;20212;-91
2022/08/20 08:27:06;;;;;;;3.92;1.15;;;32.00;93.00;;;;;;5013786;28;20207;-90
2022/08/20 08:29:34;;;;;;;4.30;1.38;;;32.60;93.30;;;;;;5014268;28;20695;-89
2022/08/20 08:32:01;;;;;;;5.25;1.58;;;34.30;92.30;;;;;;4997422;28;20271;-90
2022/08/20 08:34:28;;;;;;;5.50;1.20;;;32.70;91.60;;;;;;5009294;28;20681;-90
2022/08/20 08:36:55;;;;;;;4.88;1.20;;;30.40;93.80;;;;;;4994459;28;20206;-90
2022/08/20 08:39:21;;;;;;;4.03;1.40;;;30.10;97.50;;;;;;4980935;28;20609;-90
2022/08/20 08:41:49;;;;;;;2.35;1.17;;;30.30;95.90;;;;;;4962087;28;20181;-90
2022/08/20 08:44:22;;;;;;;4.28;1.17;;;29.50;96.90;;;;;;5009669;28;20223;-92
2022/08/20 08:46:55;;;;;;;1.27;0.60;;;30.10;95.20;;;;;;5007661;28;20215;-92
2022/08/20 08:49:26;;;;;;;1.70;1.05;;;29.80;98.20;;;;;;5009062;28;20691;-92
2022/08/20 08:52:03;;;;;;;5.35;1.35;;;30.60;97.20;;;;;;5015113;28;20283;-92
2022/08/20 08:54:31;;;;;;;5.95;1.48;;;31.30;94.50;;;;;;5004916;28;20207;-93
2022/08/20 08:56:58;;;;;;;2.42;1.48;;;30.60;96.40;;;;;;4978269;28;20211;-92
2022/08/20 08:59:27;;;;;;;3.55;1.27;;;29.30;95.80;;;;;;4962327;28;20191;-93
2022/08/20 09:01:56;;;;;;;2.90;1.38;;;30.00;96.60;;;;;;5013479;28;20726;-92
2022/08/20 09:04:25;;;;;;;1.60;0.82;;;30.20;94.20;;;;;;5013306;28;20211;-90
2022/08/20 09:06:52;;;;;;;2.50;0.93;;;29.90;95.20;;;;;;5007672;28;20219;-92
2022/08/20 09:09:27;;;;;;;3.05;1.25;;;30.90;93.60;;;;;;4981523;28;20298;-90
2022/08/20 09:11:55;;;;;;;2.25;0.95;;;31.00;92.20;;;;;;5014286;28;20186;-91
2022/08/20 09:14:23;;;;;;;1.38;1.00;;;32.00;93.70;;;;;;5013369;28;20621;-92
2022/08/20 09:16:50;;;;;;;6.25;1.50;;;33.10;91.10;;;;;;4996724;28;20687;-91
2022/08/20 09:19:16;;;;;;;4.03;1.50;;;33.00;90.40;;;;;;5012830;28;20687;-91
2022/08/20 09:21:42;;;;;;;2.85;0.98;;;32.50;92.00;;;;;;5014351;28;20233;-93
2022/08/20 09:24:08;;;;;;;3.83;1.10;;;32.30;91.10;;;;;;5012977;28;20167;-92
2022/08/20 09:26:34;;;;;;;5.03;1.35;;;32.50;90.30;;;;;;4997209;28;20245;-91
2022/08/20 09:29:00;;;;;;;6.85;0.98;;;32.40;90.30;;;;;;4997053;28;20804;-92
2022/08/20 09:31:26;;;;;;;1.52;0.90;;;33.20;90.50;;;;;;4988928;28;20307;-90
2022/08/20 09:33:52;;;;;;;2.13;1.15;;;33.40;91.40;;;;;;4971171;28;20235;-92
2022/08/20 09:36:18;;;;;;;3.50;1.33;;;33.20;90.70;;;;;;4995842;28;20203;-92
2022/08/20 09:38:44;;;;;;;1.92;0.93;;;31.50;92.50;;;;;;4989741;28;20192;-92
2022/08/20 09:41:09;;;;;;;1.35;1.05;;;30.10;94.10;;;;;;4996799;28;20671;-94
2022/08/20 09:43:35;;;;;;;3.80;1.20;;;29.50;95.90;;;;;;4986896;28;20206;-93
2022/08/20 09:46:01;;;;;;;3.75;1.20;;;29.30;94.80;;;;;;4996750;28;20234;-91
2022/08/20 09:48:27;;;;;;;3.00;1.17;;;28.50;95.30;;;;;;4973874;28;20299;-90
2022/08/20 09:50:52;;;;;;;2.92;1.33;;;28.60;95.60;;;;;;4977734;28;20245;-90
2022/08/20 09:53:20;;;;;;;2.88;1.25;;;28.10;95.00;;;;;;5011589;28;20655;-91
2022/08/20 09:55:50;;;;;;;2.70;1.17;;;28.40;94.80;;;;;;5013022;28;20219;-90
2022/08/20 09:58:34;;;;;;;4.05;1.30;;;28.30;95.50;;;;;;5011010;28;20579;-91
2022/08/20 10:01:09;;;;;;;3.33;1.40;;;28.60;95.00;;;;;;5012851;28;20269;-91
2022/08/20 10:03:34;;;;;;;3.13;1.70;;;27.40;96.20;;;;;;4996339;28;20710;-92
2022/08/20 10:06:00;;;;;;;3.08;1.23;;;26.80;98.10;;;;;;4983302;28;20188;-89
2022/08/20 10:08:27;;;;;;;1.80;1.15;;;27.60;97.70;;;;;;4996587;28;20176;-90
2022/08/20 10:10:53;;;;;;;4.15;1.08;;;27.60;97.40;;;;;;4995670;28;20715;-90
2022/08/20 10:13:18;;;;;;;1.38;1.10;;;28.40;96.80;;;;;;4967074;28;20250;-90
2022/08/20 10:15:44;;;;;;;1.65;1.20;;;28.10;96.80;;;;;;4993445;28;20242;-92
2022/08/20 10:18:10;;;;;;;6.63;1.40;;;28.50;96.50;;;;;;4996168;28;20189;-92
2022/08/20 10:20:39;;;;;;;2.38;1.17;;;28.40;98.80;;;;;;4970295;28;20192;-92
2022/08/20 10:23:05;;;;;;;2.65;1.30;;;30.10;94.60;;;;;;4990206;28;20294;-93
2022/08/20 10:25:31;;;;;;;3.83;1.33;;;30.70;92.00;;;;;;4968981;28;20576;-93
2022/08/20 10:27:58;;;;;;;2.38;1.60;;;30.40;88.10;;;;;;4981736;28;20339;-93
2022/08/20 10:30:24;;;;;;;3.67;1.48;;;29.80;93.50;;;;;;4981242;28;20220;-92
2022/08/20 10:32:50;;;;;;;5.35;1.45;;;29.40;92.90;;;;;;4996905;28;20589;-91
2022/08/20 10:35:17;;;;;;;3.28;1.30;;;29.30;92.30;;;;;;4982090;28;20238;-90
2022/08/20 10:37:44;;;;;;;3.75;1.40;;;28.80;91.90;;;;;;4996333;28;20233;-92
2022/08/20 10:40:10;;;;;;;3.63;1.33;;;29.50;94.00;;;;;;5012129;28;20211;-90
2022/08/20 10:42:36;;;;;;;3.22;1.30;;;30.30;93.20;;;;;;5013891;28;20215;-92
2022/08/20 10:45:02;;;;;;;1.73;1.30;;;28.70;93.60;;;;;;5006285;28;20224;-91
2022/08/20 10:47:31;;;;;;;3.97;1.58;;;29.00;96.00;;;;;;4993426;28;20180;-90
2022/08/20 10:49:59;;;;;;;4.25;1.42;;;28.30;93.20;;;;;;5010906;28;20239;-91
2022/08/20 10:52:26;;;;;;;1.33;1.13;;;28.60;93.20;;;;;;5015209;28;20276;-90
2022/08/20 10:55:05;;;;;;;3.95;1.52;;;28.70;94.20;;;;;;5015204;28;20215;-89
2022/08/20 10:57:32;;;;;;;2.45;1.60;;;27.30;94.40;;;;;;5010730;28;20302;-89
2022/08/20 11:00:04;;;;;;;3.17;1.42;;;27.30;98.90;;;;;;4982964;28;20188;-91
2022/08/20 11:02:30;;;;;;;5.70;1.50;;;27.30;98.70;;;;;;5000647;28;20211;-86
2022/08/20 11:04:56;;;;;;;4.20;1.40;;;27.60;96.40;;;;;;4982291;28;20250;-89
2022/08/20 11:07:24;;;;;;;4.28;1.80;;;27.40;96.00;;;;;;4992475;28;20226;-90
2022/08/20 11:09:50;;;;;;;3.17;1.48;;;27.00;96.40;;;;;;5015096;28;20238;-89
2022/08/20 11:12:18;;;;;;;4.20;1.55;;;27.30;96.40;;;;;;4997198;28;20226;-89
2022/08/20 11:14:44;;;;;;;2.40;1.58;;;28.20;96.10;;;;;;4999516;28;20658;-90
2022/08/20 11:17:10;;;;;;;3.35;1.65;;;27.90;96.90;;;;;;4997986;28;20227;-90
2022/08/20 11:19:41;;;;;;;2.30;1.17;;;27.70;96.40;;;;;;5015117;28;20689;-90
2022/08/20 11:22:08;;;;;;;2.88;1.58;;;26.60;95.90;;;;;;5014744;28;20758;-91
2022/08/20 11:24:34;;;;;;;3.80;1.30;;;26.70;98.00;;;;;;5014725;28;20280;-89
2022/08/20 11:27:00;;;;;;;2.45;1.55;;;27.90;98.00;;;;;;4998130;28;20207;-88
2022/08/20 11:29:26;;;;;;;5.68;1.50;;;28.30;98.30;;;;;;4982011;28;20211;-91
2022/08/20 11:31:51;;;;;;;1.83;1.60;;;27.90;96.40;;;;;;4978897;28;20619;-90
2022/08/20 11:34:17;;;;;;;2.63;1.42;;;26.60;97.00;;;;;;4979322;28;20212;-92
2022/08/20 11:36:45;;;;;;;5.85;1.42;;;25.70;98.70;;;;;;4983596;28;20212;-91
2022/08/20 11:39:11;;;;;;;5.47;1.58;;;25.40;99.90;;;;;;5018815;28;20219;-91
2022/08/20 11:41:39;;;;;;;3.83;1.48;;;25.40;99.90;;;;;;5015220;28;20670;-90
2022/08/20 11:44:05;;;;;;;3.30;1.20;;;25.80;99.90;;;;;;4998509;28;20235;-84
2022/08/20 11:46:32;;;;;;;4.60;1.63;;;25.60;99.90;;;;;;5013781;28;20235;-88
2022/08/20 11:48:58;;;;;;;1.88;1.20;;;25.20;99.90;;;;;;4978370;28;20241;-86
2022/08/20 11:51:24;;;;;;;2.15;1.15;;;25.00;99.90;;;;;;4978305;28;20208;-86
2022/08/20 11:53:50;;;;;;;4.60;1.50;;;24.90;99.90;;;;;;4995321;28;20214;-90
2022/08/20 11:56:16;;;;;;;3.58;1.10;;;24.50;99.90;;;;;;4965729;28;20208;-90
2022/08/20 11:58:42;;;;;;;7.15;1.77;;;24.20;99.90;;;;;;4993496;28;20758;-93
2022/08/20 12:01:11;;;;;;;3.55;1.20;;;24.00;99.90;;;;;;5006268;28;20215;-90
2022/08/20 12:03:38;;;;;;;3.53;1.35;;;24.10;99.90;;;;;;4994011;28;20319;-90
2022/08/20 12:06:04;;;;;;;4.88;1.15;;;24.40;99.90;;;;;;4978619;28;20607;-91
2022/08/20 12:08:29;;;;;;;3.72;1.52;;;24.10;99.90;;;;;;4995066;28;20207;-90
2022/08/20 12:10:56;;;;;;;7.10;1.48;;;24.00;99.90;;;;;;4985007;28;20266;-91
2022/08/20 12:13:22;;;;;;;3.05;1.17;;;24.30;99.90;;;;;;5005680;28;20219;-91
2022/08/20 12:15:49;;;;;;;1.95;0.90;;;23.70;99.90;;;;;;5010549;28;20254;-90
2022/08/20 12:18:15;;;;;;;3.70;1.25;;;24.00;99.90;;;;;;4978098;28;20274;-90
2022/08/20 12:20:40;;;;;;;1.10;0.60;;;24.10;99.90;;;;;;5009825;28;20178;-90
2022/08/20 12:23:06;;;;;;;7.28;1.17;;;23.90;99.90;;;;;;4984972;28;20235;-89
2022/08/20 12:25:34;;;;;;;4.03;0.98;;;23.90;99.90;;;;;;4997374;28;20363;-92
2022/08/20 12:28:00;;;;;;;2.03;1.10;;;24.00;99.90;;;;;;4986427;28;20278;-90
2022/08/20 12:30:25;;;;;;;3.60;0.70;;;24.50;99.90;;;;;;4978033;28;20696;-88
2022/08/20 12:32:51;;;;;;;3.13;1.27;;;24.90;99.90;;;;;;4977954;28;20191;-88
2022/08/20 12:35:18;;;;;;;3.20;0.90;;;24.70;99.90;;;;;;5007417;28;20216;-87
2022/08/20 12:37:44;;;;;;;6.15;1.75;;;24.60;99.90;;;;;;4996479;28;20271;-85
2022/08/20 12:40:14;;;;;;;5.03;1.40;;;24.20;99.90;;;;;;4980350;28;20695;-91
2022/08/20 12:42:40;;;;;;;1.95;0.70;;;24.50;99.90;;;;;;5009935;28;20215;-87
2022/08/20 12:45:07;;;;;;;2.05;1.15;;;24.80;99.90;;;;;;4979447;28;20224;-87
2022/08/20 12:47:36;;;;;;;3.47;0.85;;;24.90;99.90;;;;;;4995405;28;20195;-88
2022/08/20 12:50:09;;;;;;;3.17;1.33;;;25.60;99.90;;;;;;4992807;28;20358;-90
2022/08/20 12:52:35;;;;;;;3.67;1.00;;;26.10;99.90;;;;;;5010146;28;20215;-90
2022/08/20 12:55:02;;;;;;;5.55;1.30;;;26.20;99.60;;;;;;4972226;28;20211;-88
2022/08/20 12:57:42;;;;;;;3.40;1.30;;;26.20;98.60;;;;;;5012720;28;20295;-87